Time;durP1;ratioP1;P1;durP2;ratioP2;P2;SDS_P1;SDS_P2;PMS_P1;PMS_P2;Temp;Humidity;BMP_temperature;BMP_pressure;BME280_temperature;BME280_humidity;BME280_pressure;Samples;Min_cycle;Max_cycle;Signal;HPM_P1;HPM_P2
2023/08/01 00:00:48;;;;;;;18.83;4.95;;;16.90;99.90;;;;;;4949992;28;20061;-50
2023/08/01 00:03:14;;;;;;;17.20;5.30;;;16.90;99.90;;;;;;4952239;28;20113;-50
2023/08/01 00:05:44;;;;;;;13.23;4.40;;;16.90;99.90;;;;;;4929854;28;20065;-50
2023/08/01 00:08:13;;;;;;;13.43;4.15;;;16.90;99.90;;;;;;4948673;28;20055;-50
2023/08/01 00:10:42;;;;;;;14.30;4.68;;;16.90;99.90;;;;;;4929203;28;20051;-48
2023/08/01 00:13:08;;;;;;;11.65;4.65;;;16.90;99.90;;;;;;4950211;28;20126;-50
2023/08/01 00:15:35;;;;;;;14.23;4.70;;;16.80;99.90;;;;;;4926656;28;20058;-48
2023/08/01 00:18:00;;;;;;;13.60;4.72;;;16.80;99.90;;;;;;4948062;28;20046;-50
2023/08/01 00:20:26;;;;;;;12.68;4.28;;;16.70;99.90;;;;;;4946785;28;20061;-49
2023/08/01 00:22:52;;;;;;;13.88;4.20;;;16.70;99.90;;;;;;4945675;28;20157;-48
2023/08/01 00:25:18;;;;;;;12.05;4.13;;;16.70;99.90;;;;;;4949260;28;20101;-49
2023/08/01 00:27:44;;;;;;;10.30;4.18;;;16.60;99.90;;;;;;4947177;28;20114;-48
2023/08/01 00:30:10;;;;;;;10.55;4.35;;;16.60;99.90;;;;;;4946894;28;20416;-49
2023/08/01 00:32:37;;;;;;;9.35;4.30;;;16.60;99.90;;;;;;4948831;28;20046;-51
2023/08/01 00:35:03;;;;;;;11.00;4.22;;;16.60;99.90;;;;;;4931357;28;20049;-51
2023/08/01 00:37:29;;;;;;;13.52;4.05;;;16.60;99.90;;;;;;4945589;28;20055;-50
2023/08/01 00:39:54;;;;;;;9.35;4.28;;;16.50;99.90;;;;;;4929571;28;20035;-49
2023/08/01 00:42:20;;;;;;;16.85;4.55;;;16.50;99.90;;;;;;4930917;28;20047;-48
2023/08/01 00:44:48;;;;;;;10.23;4.55;;;16.50;99.90;;;;;;4944069;28;20058;-48
2023/08/01 00:47:14;;;;;;;11.32;4.30;;;16.50;99.90;;;;;;4950803;28;20105;-49
2023/08/01 00:49:40;;;;;;;12.52;4.25;;;16.50;99.90;;;;;;4929590;28;20042;-48
2023/08/01 00:52:08;;;;;;;9.73;4.25;;;16.50;99.90;;;;;;4929772;28;20404;-50
2023/08/01 00:54:36;;;;;;;8.65;4.22;;;16.40;99.90;;;;;;4931408;28;20054;-49
2023/08/01 00:57:05;;;;;;;12.25;4.30;;;16.40;99.90;;;;;;4930405;28;20055;-49
2023/08/01 00:59:31;;;;;;;11.43;4.53;;;16.40;99.90;;;;;;4927152;28;20406;-49
2023/08/01 01:01:59;;;;;;;8.52;3.90;;;16.40;99.90;;;;;;4936402;28;20039;-47
2023/08/01 01:04:26;;;;;;;10.10;4.00;;;16.30;99.90;;;;;;4945742;28;20043;-49
2023/08/01 01:06:59;;;;;;;8.80;3.95;;;16.30;99.90;;;;;;4934700;28;20046;-49
2023/08/01 01:09:29;;;;;;;7.55;4.15;;;16.30;99.90;;;;;;4942604;28;20544;-53
2023/08/01 01:11:55;;;;;;;11.85;4.22;;;16.30;99.90;;;;;;4944896;28;20085;-50
2023/08/01 01:14:20;;;;;;;9.73;3.78;;;16.30;99.90;;;;;;4947596;28;20039;-52
2023/08/01 01:16:46;;;;;;;7.97;3.88;;;16.20;99.90;;;;;;4945288;28;20042;-51
2023/08/01 01:19:12;;;;;;;9.20;3.92;;;16.20;99.90;;;;;;4948577;28;20425;-49
2023/08/01 01:21:39;;;;;;;11.85;3.83;;;16.20;99.90;;;;;;4945458;28;20042;-51
2023/08/01 01:24:07;;;;;;;12.48;4.20;;;16.20;99.90;;;;;;4932435;28;20133;-48
2023/08/01 01:26:34;;;;;;;9.25;3.80;;;16.10;99.90;;;;;;4945985;28;20587;-50
2023/08/01 01:29:01;;;;;;;7.63;4.22;;;16.10;99.90;;;;;;4925686;28;20054;-52
2023/08/01 01:31:27;;;;;;;8.93;4.00;;;16.10;99.90;;;;;;4948249;28;20034;-52
2023/08/01 01:33:54;;;;;;;9.95;3.90;;;16.00;99.90;;;;;;4948319;28;20530;-52
2023/08/01 01:36:20;;;;;;;11.32;4.55;;;16.00;99.90;;;;;;4929219;28;20062;-52
2023/08/01 01:38:46;;;;;;;10.10;4.10;;;16.00;99.90;;;;;;4947060;28;20085;-51
2023/08/01 01:41:12;;;;;;;9.15;4.10;;;15.90;99.90;;;;;;4945985;28;20449;-51
2023/08/01 01:43:38;;;;;;;9.93;4.20;;;16.00;99.90;;;;;;4930998;28;20058;-52
2023/08/01 01:46:04;;;;;;;12.63;4.53;;;15.90;99.90;;;;;;4946452;28;20047;-52
2023/08/01 01:48:29;;;;;;;10.45;4.22;;;15.90;99.90;;;;;;4940329;28;20051;-53
2023/08/01 01:50:55;;;;;;;10.70;3.97;;;15.90;99.90;;;;;;4945759;28;20086;-50
2023/08/01 01:53:21;;;;;;;10.32;4.43;;;15.80;99.90;;;;;;4945101;28;20053;-53
2023/08/01 01:55:46;;;;;;;8.82;4.05;;;15.90;99.90;;;;;;4946903;28;20034;-51
2023/08/01 01:58:12;;;;;;;10.07;4.28;;;15.80;99.90;;;;;;4945426;28;20038;-51
2023/08/01 02:00:38;;;;;;;10.63;4.43;;;15.80;99.90;;;;;;4948330;28;20130;-51
2023/08/01 02:03:04;;;;;;;7.68;4.18;;;15.80;99.90;;;;;;4946511;28;20030;-53
2023/08/01 02:05:30;;;;;;;12.40;4.10;;;15.80;99.90;;;;;;4929444;28;20113;-49
2023/08/01 02:07:56;;;;;;;14.32;4.45;;;15.80;99.90;;;;;;4918612;28;20053;-49
2023/08/01 02:10:22;;;;;;;11.02;3.75;;;15.80;99.90;;;;;;4929959;28;20046;-50
2023/08/01 02:12:47;;;;;;;10.40;3.75;;;15.70;99.90;;;;;;4946616;28;20402;-49
2023/08/01 02:15:13;;;;;;;10.23;3.80;;;15.70;99.90;;;;;;4939700;28;20133;-50
2023/08/01 02:17:39;;;;;;;11.98;3.90;;;15.70;99.90;;;;;;4948671;28;20057;-48
2023/08/01 02:20:06;;;;;;;9.68;4.53;;;15.60;99.90;;;;;;4952109;28;20050;-51
2023/08/01 02:22:32;;;;;;;9.55;4.32;;;15.60;99.90;;;;;;4931678;28;20039;-48
2023/08/01 02:24:58;;;;;;;10.75;4.18;;;15.50;99.90;;;;;;4950656;28;20046;-49
2023/08/01 02:27:24;;;;;;;14.57;4.60;;;15.50;99.90;;;;;;4933469;28;20516;-48
2023/08/01 02:29:50;;;;;;;10.65;4.85;;;15.50;99.90;;;;;;4951145;28;20052;-49
2023/08/01 02:32:16;;;;;;;11.10;4.18;;;15.50;99.90;;;;;;4948277;28;20047;-48
2023/08/01 02:34:42;;;;;;;11.00;4.78;;;15.40;99.90;;;;;;4949114;28;20035;-52
2023/08/01 02:37:08;;;;;;;11.52;4.50;;;15.40;99.90;;;;;;4949481;28;20042;-50
2023/08/01 02:39:35;;;;;;;7.32;4.28;;;15.30;99.90;;;;;;4955059;28;20508;-48
2023/08/01 02:42:00;;;;;;;13.48;4.63;;;15.30;99.90;;;;;;4949969;28;20051;-49
2023/08/01 02:44:26;;;;;;;9.73;4.38;;;15.30;99.90;;;;;;4931150;28;20046;-50
2023/08/01 02:46:52;;;;;;;15.20;5.20;;;15.30;99.90;;;;;;4950541;28;20500;-49
2023/08/01 02:49:18;;;;;;;11.77;4.63;;;15.20;99.90;;;;;;4947535;28;20379;-51
2023/08/01 02:51:43;;;;;;;11.80;4.38;;;15.20;99.90;;;;;;4951074;28;20035;-49
2023/08/01 02:54:09;;;;;;;10.48;4.50;;;15.20;99.90;;;;;;4921609;28;20046;-50
2023/08/01 02:56:37;;;;;;;12.45;4.57;;;15.20;99.90;;;;;;4951044;28;20055;-48
2023/08/01 02:59:04;;;;;;;11.35;4.38;;;15.20;99.90;;;;;;4950659;28;20101;-50
2023/08/01 03:01:30;;;;;;;11.50;4.10;;;15.20;99.90;;;;;;4948654;28;20105;-52
2023/08/01 03:03:56;;;;;;;10.27;4.57;;;15.20;99.90;;;;;;4947882;28;20047;-50
2023/08/01 03:06:22;;;;;;;6.93;4.43;;;15.20;99.90;;;;;;4950356;28;20038;-49
2023/08/01 03:08:48;;;;;;;11.90;4.57;;;15.20;99.90;;;;;;4949786;28;20047;-50
2023/08/01 03:11:13;;;;;;;11.50;4.20;;;15.20;99.90;;;;;;4949423;28;20055;-49
2023/08/01 03:13:39;;;;;;;14.82;4.75;;;15.30;99.90;;;;;;4933360;28;20138;-49
2023/08/01 03:16:05;;;;;;;12.35;4.95;;;15.30;99.90;;;;;;4945209;28;20520;-49
2023/08/01 03:18:30;;;;;;;10.35;5.00;;;15.30;99.90;;;;;;4926346;28;20043;-50
2023/08/01 03:20:56;;;;;;;17.08;5.40;;;15.30;99.90;;;;;;4951920;28;20376;-53
2023/08/01 03:23:22;;;;;;;15.38;5.30;;;15.40;99.90;;;;;;4952106;28;20047;-49
2023/08/01 03:25:48;;;;;;;13.05;5.10;;;15.40;99.90;;;;;;4953613;28;20105;-49
2023/08/01 03:28:14;;;;;;;12.63;5.45;;;15.40;99.90;;;;;;4933026;28;20070;-50
2023/08/01 03:30:39;;;;;;;12.95;5.28;;;15.40;99.90;;;;;;4920236;28;20054;-50
2023/08/01 03:33:05;;;;;;;15.20;6.00;;;15.50;99.90;;;;;;4950328;28;20137;-53
2023/08/01 03:35:31;;;;;;;15.00;5.63;;;15.50;99.90;;;;;;4949794;28;20050;-48
2023/08/01 03:37:57;;;;;;;11.43;5.97;;;15.50;99.90;;;;;;4949890;28;20592;-48
2023/08/01 03:40:23;;;;;;;11.48;6.05;;;15.50;99.90;;;;;;4949755;28;20541;-50
2023/08/01 03:42:49;;;;;;;11.68;6.05;;;15.50;99.90;;;;;;4946494;28;20063;-49
2023/08/01 03:45:14;;;;;;;12.10;6.10;;;15.50;99.90;;;;;;4949098;28;20085;-49
2023/08/01 03:47:40;;;;;;;13.05;6.30;;;15.50;99.90;;;;;;4931136;28;20054;-51
2023/08/01 03:50:06;;;;;;;15.13;5.80;;;15.50;99.90;;;;;;4950345;28;20089;-48
2023/08/01 03:52:32;;;;;;;15.63;5.30;;;15.50;99.90;;;;;;4951914;28;20047;-49
2023/08/01 03:54:58;;;;;;;13.88;5.20;;;15.50;99.90;;;;;;4949730;28;20070;-49
2023/08/01 03:57:23;;;;;;;13.98;4.95;;;15.50;99.90;;;;;;4946447;28;20101;-51
2023/08/01 03:59:49;;;;;;;10.50;4.78;;;15.50;99.90;;;;;;4949340;28;20158;-49
2023/08/01 04:02:15;;;;;;;10.45;4.00;;;15.50;99.90;;;;;;4948483;28;20073;-51
2023/08/01 04:04:41;;;;;;;13.23;4.57;;;15.50;99.90;;;;;;4949731;28;20043;-50
2023/08/01 04:07:08;;;;;;;10.25;3.95;;;15.50;99.90;;;;;;4932119;28;20055;-50
2023/08/01 04:09:34;;;;;;;9.93;3.70;;;15.50;99.90;;;;;;4951479;28;20043;-48
2023/08/01 04:12:00;;;;;;;9.32;3.47;;;15.50;99.90;;;;;;4948743;28;20485;-49
2023/08/01 04:14:25;;;;;;;8.60;3.90;;;15.50;99.90;;;;;;4933293;28;20046;-49
2023/08/01 04:16:51;;;;;;;8.65;3.63;;;15.40;99.90;;;;;;4949449;28;20300;-48
2023/08/01 04:19:17;;;;;;;10.52;3.60;;;15.40;99.90;;;;;;4948316;28;20101;-48
2023/08/01 04:21:43;;;;;;;10.60;3.97;;;15.50;99.90;;;;;;4929422;28;20068;-50
2023/08/01 04:24:09;;;;;;;12.43;2.83;;;15.40;99.90;;;;;;4952249;28;20047;-48
2023/08/01 04:26:36;;;;;;;8.77;3.13;;;15.50;99.90;;;;;;4924862;28;20042;-51
2023/08/01 04:29:02;;;;;;;8.43;3.03;;;15.50;99.90;;;;;;4954780;28;20047;-47
2023/08/01 04:31:28;;;;;;;9.48;3.20;;;15.50;99.90;;;;;;4954757;28;20445;-48
2023/08/01 04:33:53;;;;;;;7.13;3.22;;;15.50;99.90;;;;;;4954156;28;20778;-49
2023/08/01 04:36:19;;;;;;;10.15;3.00;;;15.50;99.90;;;;;;4949072;28;20050;-49
2023/08/01 04:38:45;;;;;;;5.80;2.70;;;15.50;99.90;;;;;;4949773;28;20077;-52
2023/08/01 04:41:10;;;;;;;7.97;3.25;;;15.50;99.90;;;;;;4932247;28;20421;-49
2023/08/01 04:43:36;;;;;;;8.15;2.92;;;15.40;99.90;;;;;;4952435;28;20414;-50
2023/08/01 04:46:02;;;;;;;8.00;3.10;;;15.40;99.90;;;;;;4948611;28;20057;-49
2023/08/01 04:48:28;;;;;;;11.95;3.00;;;15.40;99.90;;;;;;4948086;28;20698;-49
2023/08/01 04:50:53;;;;;;;7.30;2.85;;;15.40;99.90;;;;;;4947967;28;20434;-53
2023/08/01 04:53:19;;;;;;;8.63;2.78;;;15.40;99.90;;;;;;4928267;28;20164;-52
2023/08/01 04:55:45;;;;;;;6.70;2.83;;;15.50;99.90;;;;;;4950128;28;20098;-50
2023/08/01 04:58:10;;;;;;;12.95;2.53;;;15.50;99.90;;;;;;4949837;28;20504;-50
2023/08/01 05:00:37;;;;;;;9.27;2.50;;;15.50;99.90;;;;;;4949696;28;20086;-48
2023/08/01 05:03:03;;;;;;;8.30;2.38;;;15.50;99.90;;;;;;4951312;28;20528;-48
2023/08/01 05:05:29;;;;;;;9.48;2.70;;;15.40;99.90;;;;;;4951335;28;20055;-50
2023/08/01 05:07:54;;;;;;;9.20;2.60;;;15.60;99.90;;;;;;4932731;28;20050;-49
2023/08/01 05:10:20;;;;;;;7.00;2.30;;;15.70;99.90;;;;;;4947824;28;20047;-50
2023/08/01 05:12:46;;;;;;;9.70;2.72;;;15.80;99.90;;;;;;4947327;28;20034;-50
2023/08/01 05:15:12;;;;;;;7.65;2.10;;;15.80;99.90;;;;;;4947787;28;20027;-51
2023/08/01 05:17:38;;;;;;;10.15;2.53;;;15.90;99.90;;;;;;4948928;28;20080;-50
2023/08/01 05:20:05;;;;;;;5.75;2.05;;;16.00;99.90;;;;;;4947679;28;20528;-50
2023/08/01 05:22:31;;;;;;;9.80;2.47;;;16.10;99.90;;;;;;4949361;28;20409;-51
2023/08/01 05:24:56;;;;;;;9.50;2.50;;;16.10;99.90;;;;;;4947478;28;20051;-48
2023/08/01 05:27:22;;;;;;;9.43;2.22;;;16.10;99.90;;;;;;4941080;28;20039;-49
2023/08/01 05:29:48;;;;;;;11.27;2.35;;;16.00;99.90;;;;;;4946982;28;20129;-51
2023/08/01 05:32:13;;;;;;;7.00;2.15;;;16.00;99.90;;;;;;4935655;28;20077;-48
2023/08/01 05:34:39;;;;;;;9.23;2.58;;;16.00;99.90;;;;;;4940724;28;20045;-49
2023/08/01 05:37:05;;;;;;;6.40;2.00;;;16.00;99.90;;;;;;4947996;28;20141;-49
2023/08/01 05:39:31;;;;;;;7.57;2.22;;;15.90;99.90;;;;;;4945638;28;20047;-48
2023/08/01 05:41:56;;;;;;;7.07;2.15;;;15.90;99.90;;;;;;4929359;28;20047;-54
2023/08/01 05:44:22;;;;;;;7.15;2.35;;;15.90;99.90;;;;;;4950663;28;20058;-54
2023/08/01 05:46:48;;;;;;;6.50;2.17;;;15.90;99.90;;;;;;4935085;28;20561;-53
2023/08/01 05:49:13;;;;;;;5.82;2.42;;;15.90;99.90;;;;;;4948006;28;20047;-54
2023/08/01 05:51:39;;;;;;;11.80;2.70;;;15.90;99.90;;;;;;4946062;28;20546;-52
2023/08/01 05:54:05;;;;;;;6.55;2.47;;;15.90;99.90;;;;;;4948252;28;20043;-54
2023/08/01 05:56:31;;;;;;;5.93;2.15;;;16.00;99.90;;;;;;4950069;28;20078;-52
2023/08/01 05:58:57;;;;;;;7.28;2.20;;;16.00;99.90;;;;;;4934356;28;20054;-53
2023/08/01 06:01:22;;;;;;;8.50;2.45;;;16.00;99.90;;;;;;4948364;28;20402;-53
2023/08/01 06:03:48;;;;;;;6.82;2.42;;;16.10;99.90;;;;;;4923785;28;20070;-53
2023/08/01 06:06:14;;;;;;;7.22;2.10;;;16.10;99.90;;;;;;4952298;28;20043;-54
2023/08/01 06:08:39;;;;;;;8.15;2.20;;;16.10;99.90;;;;;;4955674;28;20117;-51
2023/08/01 06:11:05;;;;;;;4.97;2.13;;;16.10;99.90;;;;;;4955195;28;20126;-53
2023/08/01 06:13:31;;;;;;;4.28;2.03;;;16.10;99.90;;;;;;4957327;28;20386;-55
2023/08/01 06:15:56;;;;;;;5.68;2.25;;;16.10;99.90;;;;;;4956577;28;20469;-55
2023/08/01 06:18:22;;;;;;;6.15;2.50;;;16.10;99.90;;;;;;4956305;28;20047;-53
2023/08/01 06:20:48;;;;;;;5.30;2.60;;;16.10;99.90;;;;;;4957415;28;20045;-54
2023/08/01 06:23:14;;;;;;;6.82;2.28;;;16.10;99.90;;;;;;4912465;28;20113;-55
2023/08/01 06:25:39;;;;;;;3.95;2.35;;;16.20;99.90;;;;;;4957403;28;20126;-52
2023/08/01 06:28:05;;;;;;;6.45;2.40;;;16.20;99.90;;;;;;4950573;28;20035;-53
2023/08/01 06:30:31;;;;;;;5.75;2.15;;;16.20;99.90;;;;;;4929989;28;20055;-54
2023/08/01 06:32:56;;;;;;;4.78;2.13;;;16.20;99.90;;;;;;4951315;28;20757;-52
2023/08/01 06:35:22;;;;;;;5.82;2.60;;;16.20;99.90;;;;;;4945602;28;20507;-52
2023/08/01 06:37:48;;;;;;;6.28;2.00;;;16.10;99.90;;;;;;4933335;28;20058;-53
2023/08/01 06:40:13;;;;;;;5.47;2.47;;;16.20;99.90;;;;;;4951634;28;20397;-53
2023/08/01 06:42:40;;;;;;;4.47;1.98;;;16.20;99.90;;;;;;4895423;28;20058;-54
2023/08/01 06:45:06;;;;;;;5.13;2.10;;;16.20;99.90;;;;;;4948685;28;20062;-51
2023/08/01 06:47:32;;;;;;;5.10;2.25;;;16.20;99.90;;;;;;4952190;28;20058;-54
2023/08/01 06:49:58;;;;;;;5.15;1.98;;;16.20;99.90;;;;;;4935182;28;20054;-53
2023/08/01 06:52:23;;;;;;;4.50;2.08;;;16.20;99.90;;;;;;4952825;28;20598;-52
2023/08/01 06:54:49;;;;;;;5.32;2.20;;;16.20;99.90;;;;;;4951016;28;20074;-55
2023/08/01 06:57:15;;;;;;;5.43;2.55;;;16.30;99.90;;;;;;4947000;28;20046;-53
2023/08/01 06:59:41;;;;;;;3.67;1.95;;;16.40;99.90;;;;;;4951585;28;20125;-54
2023/08/01 07:02:08;;;;;;;4.72;2.15;;;16.50;99.90;;;;;;4932852;28;20066;-52
2023/08/01 07:04:34;;;;;;;5.72;1.90;;;16.50;99.90;;;;;;4951453;28;20051;-55
2023/08/01 07:07:00;;;;;;;3.70;1.38;;;16.60;99.90;;;;;;4945870;28;21398;-54
2023/08/01 07:09:25;;;;;;;6.35;2.15;;;16.60;99.90;;;;;;4952117;28;20055;-54
2023/08/01 07:11:51;;;;;;;5.65;1.77;;;16.60;99.90;;;;;;4951690;28;20062;-53
2023/08/01 07:14:17;;;;;;;6.53;1.90;;;16.60;99.90;;;;;;4949730;28;20482;-55
2023/08/01 07:16:43;;;;;;;9.52;1.92;;;16.60;99.90;;;;;;4952965;28;20053;-54
2023/08/01 07:19:08;;;;;;;3.85;1.52;;;16.60;99.90;;;;;;4951451;28;20049;-53
2023/08/01 07:21:34;;;;;;;5.75;1.60;;;16.70;99.90;;;;;;4948443;28;20043;-55
2023/08/01 07:24:00;;;;;;;3.60;1.42;;;16.80;99.90;;;;;;4948383;28;20035;-53
2023/08/01 07:26:25;;;;;;;5.07;1.48;;;16.90;99.90;;;;;;4955585;28;20035;-55
2023/08/01 07:28:51;;;;;;;9.32;1.60;;;16.90;99.90;;;;;;4935892;28;20046;-52
2023/08/01 07:31:17;;;;;;;6.20;1.50;;;17.00;99.90;;;;;;4952450;28;20544;-55
2023/08/01 07:33:42;;;;;;;6.30;1.67;;;17.00;99.90;;;;;;4951775;28;20577;-54
2023/08/01 07:36:08;;;;;;;4.10;1.40;;;17.00;99.90;;;;;;4953350;28;20043;-54
2023/08/01 07:38:34;;;;;;;6.10;1.52;;;17.00;99.90;;;;;;4950140;28;20050;-53
2023/08/01 07:41:07;;;;;;;4.15;1.50;;;16.90;99.90;;;;;;4947680;28;20049;-53
2023/08/01 07:43:33;;;;;;;6.82;1.35;;;16.90;99.90;;;;;;4940645;28;20070;-52
2023/08/01 07:45:59;;;;;;;4.68;1.10;;;16.90;99.90;;;;;;4935027;28;21174;-55
2023/08/01 07:48:25;;;;;;;5.60;1.48;;;16.90;99.90;;;;;;4942994;28;20059;-54
2023/08/01 07:50:51;;;;;;;9.13;1.73;;;16.90;99.90;;;;;;4925918;28;20382;-52
2023/08/01 07:53:17;;;;;;;6.95;1.70;;;16.80;99.90;;;;;;4939686;28;20047;-52
2023/08/01 07:55:42;;;;;;;7.00;1.15;;;16.90;99.90;;;;;;4952396;28;20073;-53
2023/08/01 07:58:08;;;;;;;5.47;1.02;;;17.00;99.90;;;;;;4955417;28;20074;-54
2023/08/01 08:00:37;;;;;;;5.72;1.38;;;17.10;99.90;;;;;;4952702;28;20038;-54
2023/08/01 08:03:02;;;;;;;3.00;1.05;;;17.30;99.90;;;;;;4955735;28;20049;-53
2023/08/01 08:05:28;;;;;;;5.78;1.20;;;17.40;99.90;;;;;;4953579;28;20047;-53
2023/08/01 08:07:54;;;;;;;6.22;1.60;;;17.50;99.90;;;;;;4934897;28;20137;-56
2023/08/01 08:10:20;;;;;;;7.88;1.70;;;17.50;99.90;;;;;;4955071;28;20038;-54
2023/08/01 08:12:45;;;;;;;3.15;1.10;;;17.50;99.90;;;;;;4953657;28;20472;-54
2023/08/01 08:15:13;;;;;;;9.32;1.58;;;17.50;99.90;;;;;;4936680;28;20051;-54
2023/08/01 08:17:39;;;;;;;6.18;1.55;;;17.50;99.90;;;;;;4939997;28;20525;-55
2023/08/01 08:20:06;;;;;;;4.07;1.35;;;17.60;99.90;;;;;;4955074;28;20191;-54
2023/08/01 08:22:32;;;;;;;5.00;1.20;;;17.60;99.90;;;;;;4952817;28;20051;-55
2023/08/01 08:24:57;;;;;;;4.05;1.17;;;17.50;99.90;;;;;;4956955;28;20416;-54
2023/08/01 08:27:23;;;;;;;2.92;1.17;;;17.50;99.90;;;;;;4951381;28;20055;-55
2023/08/01 08:29:50;;;;;;;7.70;1.38;;;17.40;99.90;;;;;;4954272;28;20533;-54
2023/08/01 08:32:16;;;;;;;3.95;1.35;;;17.30;99.90;;;;;;4953140;28;20166;-54
2023/08/01 08:34:42;;;;;;;7.45;1.73;;;17.20;99.90;;;;;;4951892;28;20440;-56
2023/08/01 08:37:07;;;;;;;3.90;1.50;;;17.10;99.90;;;;;;4948792;28;20133;-55
2023/08/01 08:39:33;;;;;;;4.63;1.48;;;17.00;99.90;;;;;;4954036;28;20048;-52
2023/08/01 08:41:59;;;;;;;9.27;1.52;;;16.90;99.90;;;;;;4952765;28;20070;-52
2023/08/01 08:44:25;;;;;;;4.97;1.20;;;16.80;99.90;;;;;;4952089;28;20047;-53
2023/08/01 08:46:52;;;;;;;3.30;1.10;;;16.80;99.90;;;;;;4952322;28;20113;-53
2023/08/01 08:49:21;;;;;;;4.45;1.50;;;16.70;99.90;;;;;;4925522;28;20071;-54
2023/08/01 08:51:48;;;;;;;5.28;1.50;;;16.70;99.90;;;;;;4937319;28;20062;-54
2023/08/01 08:54:15;;;;;;;3.65;1.50;;;16.70;99.90;;;;;;4942497;28;20051;-54
2023/08/01 08:56:41;;;;;;;6.10;1.52;;;16.70;99.90;;;;;;4954572;28;20051;-54
2023/08/01 08:59:10;;;;;;;6.00;1.42;;;16.70;99.90;;;;;;4951576;28;20080;-55
2023/08/01 09:01:37;;;;;;;4.97;1.50;;;16.80;99.90;;;;;;4952160;28;20423;-54
2023/08/01 09:04:03;;;;;;;5.38;1.60;;;16.80;99.90;;;;;;4954813;28;20058;-54
2023/08/01 09:06:35;;;;;;;7.85;1.65;;;16.90;99.90;;;;;;4949553;28;20054;-53
2023/08/01 09:09:11;;;;;;;8.65;1.88;;;17.20;99.90;;;;;;4954351;28;20047;-54
2023/08/01 09:11:44;;;;;;;6.78;1.48;;;17.50;99.90;;;;;;4952510;28;20054;-53
2023/08/01 09:14:10;;;;;;;6.40;1.60;;;17.60;99.90;;;;;;4950244;28;20051;-55
2023/08/01 09:16:36;;;;;;;5.65;1.65;;;17.70;99.90;;;;;;4951317;28;20452;-52
2023/08/01 09:19:02;;;;;;;9.95;1.95;;;17.70;99.90;;;;;;4951412;28;20583;-55
2023/08/01 09:21:35;;;;;;;8.18;2.15;;;17.70;99.90;;;;;;4949731;28;20047;-54
2023/08/01 09:24:15;;;;;;;5.95;1.40;;;17.80;99.90;;;;;;4920692;28;20124;-55
2023/08/01 09:26:41;;;;;;;3.75;1.40;;;17.90;99.90;;;;;;4931601;28;20043;-52
2023/08/01 09:29:07;;;;;;;5.70;1.73;;;17.90;99.90;;;;;;4948105;28;20467;-53
2023/08/01 09:31:36;;;;;;;6.32;1.40;;;17.90;99.90;;;;;;4952011;28;20070;-54
2023/08/01 09:34:06;;;;;;;4.10;1.50;;;17.80;99.90;;;;;;4950348;28;20034;-54
2023/08/01 09:36:34;;;;;;;2.55;1.10;;;17.80;99.90;;;;;;4950811;28;20528;-54
2023/08/01 09:39:03;;;;;;;4.28;1.17;;;17.70;99.90;;;;;;4950150;28;20073;-54
2023/08/01 09:41:30;;;;;;;4.72;1.02;;;17.60;99.90;;;;;;4951320;28;20050;-55
2023/08/01 09:43:56;;;;;;;3.00;0.93;;;17.60;99.90;;;;;;4952473;28;20046;-52
2023/08/01 09:46:23;;;;;;;4.35;1.00;;;17.50;99.90;;;;;;4952827;28;20054;-51
2023/08/01 09:48:49;;;;;;;5.20;1.38;;;17.60;99.90;;;;;;4951070;28;20047;-53
2023/08/01 09:51:19;;;;;;;5.07;1.50;;;17.80;99.90;;;;;;4954342;28;20101;-55
2023/08/01 09:53:52;;;;;;;7.57;1.50;;;18.00;99.90;;;;;;4944008;28;20058;-52
2023/08/01 09:56:21;;;;;;;3.70;1.30;;;18.30;99.90;;;;;;4938065;28;20039;-52
2023/08/01 09:58:47;;;;;;;10.18;1.75;;;18.60;99.90;;;;;;4938274;28;20441;-52
2023/08/01 10:01:15;;;;;;;7.15;1.80;;;18.90;99.90;;;;;;4931196;28;20081;-54
2023/08/01 10:03:52;;;;;;;6.40;1.40;;;19.20;99.90;;;;;;4952604;28;20060;-53
2023/08/01 10:06:19;;;;;;;6.68;1.60;;;19.30;99.90;;;;;;4951493;28;20059;-54
2023/08/01 10:08:46;;;;;;;7.85;1.60;;;19.40;99.90;;;;;;4949706;28;20121;-52
2023/08/01 10:11:19;;;;;;;5.78;1.48;;;19.70;99.90;;;;;;4954115;28;20042;-53
2023/08/01 10:13:45;;;;;;;4.80;1.77;;;19.90;99.90;;;;;;4953856;28;20138;-52
2023/08/01 10:16:13;;;;;;;6.10;1.40;;;20.10;99.90;;;;;;4933818;28;20078;-54
2023/08/01 10:18:39;;;;;;;3.85;1.40;;;20.10;99.90;;;;;;4951036;28;20051;-55
2023/08/01 10:21:11;;;;;;;4.80;1.50;;;20.10;99.90;;;;;;4954499;28;20042;-54
2023/08/01 10:23:38;;;;;;;9.52;1.60;;;19.90;99.90;;;;;;4950140;28;21078;-54
2023/08/01 10:26:07;;;;;;;6.28;1.60;;;19.70;99.90;;;;;;4954599;28;20054;-54
2023/08/01 10:28:34;;;;;;;4.63;1.20;;;19.60;99.90;;;;;;4952591;28;20038;-54
2023/08/01 10:31:16;;;;;;;4.68;1.40;;;19.40;99.90;;;;;;4951102;28;20062;-54
2023/08/01 10:33:43;;;;;;;;;;;19.20;99.90;;;;;;4951105;28;20051;-53
2023/08/01 10:36:15;;;;;;;7.22;1.50;;;19.10;99.90;;;;;;4951872;28;20387;-52
2023/08/01 10:38:53;;;;;;;6.85;1.63;;;19.10;99.90;;;;;;4950358;28;20046;-54
2023/08/01 10:41:27;;;;;;;7.70;1.58;;;19.40;99.90;;;;;;4950647;28;20185;-53
2023/08/01 10:44:04;;;;;;;6.57;1.52;;;19.50;99.90;;;;;;4954923;28;20580;-55
2023/08/01 10:46:53;;;;;;;6.50;1.45;;;19.60;99.90;;;;;;4948538;28;20053;-54
2023/08/01 10:49:32;;;;;;;5.38;1.60;;;19.80;99.90;;;;;;4949156;28;20047;-54
2023/08/01 10:51:58;;;;;;;3.70;1.52;;;20.10;99.90;;;;;;4949265;28;21922;-54
2023/08/01 10:54:25;;;;;;;8.60;1.50;;;20.10;99.90;;;;;;4950506;28;20042;-54
2023/08/01 10:56:58;;;;;;;8.18;1.65;;;20.20;99.90;;;;;;4952680;28;20039;-54
2023/08/01 10:59:24;;;;;;;;;;;20.00;99.90;;;;;;4934095;28;20561;-53
2023/08/01 11:01:58;;;;;;;5.53;1.45;;;19.80;99.90;;;;;;4953584;28;20644;-55
2023/08/01 11:04:24;;;;;;;4.50;1.40;;;19.70;99.90;;;;;;4942701;28;20089;-54
2023/08/01 11:06:53;;;;;;;6.40;1.48;;;19.90;99.90;;;;;;4953888;28;20169;-53
2023/08/01 11:09:19;;;;;;;7.28;1.30;;;20.20;99.90;;;;;;4956953;28;20114;-54
2023/08/01 11:11:49;;;;;;;5.45;1.15;;;20.40;99.90;;;;;;4956235;28;20086;-54
2023/08/01 11:14:16;;;;;;;7.47;1.58;;;20.50;99.90;;;;;;4955061;28;20093;-53
2023/08/01 11:16:43;;;;;;;6.07;1.30;;;20.50;99.90;;;;;;4916940;28;20043;-54
2023/08/01 11:19:27;;;;;;;5.53;1.50;;;20.30;99.90;;;;;;4934331;28;20501;-53
2023/08/01 11:21:56;;;;;;;5.47;1.30;;;20.10;99.90;;;;;;4952714;28;20042;-54
2023/08/01 11:24:22;;;;;;;7.60;1.80;;;20.10;99.90;;;;;;4954582;28;20101;-54
2023/08/01 11:26:50;;;;;;;6.10;1.80;;;20.20;99.90;;;;;;4955222;28;20098;-52
2023/08/01 11:29:17;;;;;;;5.07;1.17;;;20.50;99.90;;;;;;4954663;28;20051;-53
2023/08/01 11:31:54;;;;;;;3.83;1.30;;;20.80;99.90;;;;;;4934769;28;20523;-53
2023/08/01 11:34:20;;;;;;;5.85;1.33;;;20.90;99.90;;;;;;4934430;28;20173;-54
2023/08/01 11:36:46;;;;;;;4.53;1.48;;;20.90;99.90;;;;;;4935588;28;20456;-54
2023/08/01 11:39:12;;;;;;;5.40;1.27;;;21.00;99.90;;;;;;4951999;28;20100;-53
2023/08/01 11:41:38;;;;;;;7.80;1.52;;;21.10;99.90;;;;;;4935798;28;20051;-53
2023/08/01 11:44:04;;;;;;;7.65;1.15;;;21.40;99.90;;;;;;4951844;28;20051;-53
2023/08/01 11:46:35;;;;;;;5.20;1.13;;;21.40;99.90;;;;;;4953437;28;20058;-54
2023/08/01 11:49:02;;;;;;;5.22;1.05;;;21.30;99.90;;;;;;4952036;28;20046;-54
2023/08/01 11:51:28;;;;;;;3.78;0.93;;;21.20;99.90;;;;;;4936085;28;20047;-53
2023/08/01 11:54:02;;;;;;;6.03;1.13;;;21.20;99.90;;;;;;4953627;28;20047;-52
2023/08/01 11:56:27;;;;;;;5.18;1.23;;;21.10;99.90;;;;;;4939454;28;20134;-53
2023/08/01 11:58:53;;;;;;;12.73;1.40;;;20.90;99.90;;;;;;4957458;28;20039;-53
2023/08/01 12:01:19;;;;;;;5.97;1.15;;;20.80;99.90;;;;;;4958414;28;20592;-52
2023/08/01 12:03:52;;;;;;;5.30;1.10;;;20.70;99.90;;;;;;4958364;28;20046;-54
2023/08/01 12:06:21;;;;;;;5.18;1.00;;;20.60;99.90;;;;;;4944141;28;20493;-54
2023/08/01 12:08:50;;;;;;;3.10;1.08;;;20.50;99.90;;;;;;4960508;28;20405;-54
2023/08/01 12:11:22;;;;;;;8.48;1.38;;;20.50;99.90;;;;;;4959837;28;20178;-53
2023/08/01 12:14:13;;;;;;;8.02;1.17;;;20.40;99.90;;;;;;4958312;28;20498;-53
2023/08/01 12:16:44;;;;;;;3.92;1.08;;;20.40;99.90;;;;;;4956645;28;20054;-52
2023/08/01 12:19:10;;;;;;;6.35;1.52;;;20.30;99.90;;;;;;4942750;28;20074;-53
2023/08/01 12:21:36;;;;;;;7.22;1.70;;;20.30;99.90;;;;;;4946796;28;20130;-55
2023/08/01 12:24:02;;;;;;;4.90;1.30;;;20.20;99.90;;;;;;4929000;28;20576;-53
2023/08/01 12:26:28;;;;;;;5.53;1.42;;;20.40;99.90;;;;;;4953877;28;20038;-51
2023/08/01 12:28:55;;;;;;;7.03;1.58;;;20.50;99.90;;;;;;4939626;28;20109;-50
2023/08/01 12:31:22;;;;;;;7.55;1.42;;;20.40;99.90;;;;;;4944703;28;20057;-51
2023/08/01 12:33:48;;;;;;;6.70;1.65;;;20.50;99.90;;;;;;4950504;28;20097;-51
2023/08/01 12:36:14;;;;;;;5.13;1.38;;;20.60;99.90;;;;;;4934502;28;20475;-53
2023/08/01 12:38:40;;;;;;;6.30;2.00;;;20.60;99.90;;;;;;4951102;28;20070;-53
2023/08/01 12:41:06;;;;;;;4.55;1.30;;;20.70;99.90;;;;;;4948812;28;20154;-53
2023/08/01 12:43:32;;;;;;;7.15;1.48;;;20.70;99.90;;;;;;4933207;28;20043;-55